DucheSS Of Scandinavia — OUZI2 — position and weather

sailwx.info

Track history (hours):
 
Tides and Currents Weather Stations Pressure Air Temp Water Temp Dewpoint Dewpoint Depression Visibility Wind Speed Wind Dir Waves Ship Positions

DucheSS Of Scandinavia

Operator: DFDS A/S

Last reported at 2016-Jul-30 06:31 UTC. Time now 2016-Jul-30 07:20 UTC.
Position N 59°07' E 010°14'.

Length 134 m; draft 5.2 m.

Type: Passenger vessel. MMSI: 219002929.

Date/timePositionNaut miles runAvg speedWind from/ knotsBaromVisibWave heightAir tempDewpointWater temp
2016-Jul-30 06:31N 59°07' E 010°14'0 0.3
2016-Jul-30 05:34N 59°08' E 010°14'1 1.4
2016-Jul-30 04:32N 59°06' E 010°14'0 0.0
2016-Jul-30 03:33N 59°06' E 010°14'0 0.0
2016-Jul-30 02:30N 59°06' E 010°14'0 0.0
2016-Jul-30 01:31N 59°06' E 010°14'0 0.0
2016-Jul-30 00:32N 59°06' E 010°14'0 0.0
2016-Jul-29 23:32N 59°06' E 010°14'0 0.0
2016-Jul-29 22:33N 59°06' E 010°14'0 0.0
2016-Jul-29 21:28N 59°06' E 010°14'0 0.0
2016-Jul-29 20:31N 59°06' E 010°14'1 1.5
2016-Jul-29 19:33N 59°08' E 010°14'6 5.8
2016-Jul-29 18:33N 59°02' E 010°16'1615.9
2016-Jul-29 17:33N 59°02' E 010°47'1313.4
2016-Jul-29 16:34N 58°56' E 011°10'4 3.9
2016-Jul-29 15:33N 58°57' E 011°03'1514.9
2016-Jul-29 14:33N 59°01' E 010°35'1312.6
2016-Jul-29 13:33N 59°07' E 010°14'1 0.8
2016-Jul-29 12:33N 59°08' E 010°14'9 9.1
2016-Jul-29 11:33N 59°01' E 010°26'1515.0
2016-Jul-29 10:33N 59°01' E 010°55'9 9.1
2016-Jul-29 09:34N 58°56' E 011°10'5 4.6
2016-Jul-29 08:33N 58°58' E 011°02'1515.3
2016-Jul-29 07:34N 59°01' E 010°33'1211.9
2016-Jul-29 06:33N 59°07' E 010°14'0 0.3
2016-Jul-29 05:34N 59°08' E 010°14'1 1.4
2016-Jul-29 04:32N 59°06' E 010°14'0 0.0
2016-Jul-29 03:33N 59°06' E 010°14'0 0.0
2016-Jul-29 02:31N 59°06' E 010°14'0 0.0
2016-Jul-29 01:31N 59°06' E 010°14'0 0.0
2016-Jul-29 00:32N 59°06' E 010°14'0 0.0
2016-Jul-28 23:33N 59°06' E 010°14'0 0.0
2016-Jul-28 22:33N 59°06' E 010°14'0 0.0
2016-Jul-28 21:31N 59°06' E 010°14'0 0.0
2016-Jul-28 20:34N 59°06' E 010°14'1 1.4
2016-Jul-28 19:34N 59°08' E 010°14'6 5.6
2016-Jul-28 18:33N 59°02' E 010°16'1514.8
2016-Jul-28 17:34N 59°02' E 010°44'1414.4
2016-Jul-28 16:34N 58°56' E 011°10'3 2.5
2016-Jul-28 15:34N 58°56' E 011°05'1515.4
2016-Jul-28 14:33N 59°01' E 010°37'1313.1
2016-Jul-28 13:33N 59°07' E 010°14'1 1.0
2016-Jul-28 12:34N 59°08' E 010°14'9 9.4
2016-Jul-28 11:34N 59°01' E 010°26'1515.3
2016-Jul-28 10:33N 59°00' E 010°56'9 8.6
2016-Jul-28 09:34N 58°56' E 011°10'3 3.5
2016-Jul-28 08:34N 58°57' E 011°04'1515.3
2016-Jul-28 07:34N 59°01' E 010°35'1312.6
2016-Jul-28 06:33N 59°07' E 010°14'0 0.3
2016-Jul-28 05:34N 59°08' E 010°14'1 1.4
2016-Jul-28 04:34N 59°06' E 010°14'0 0.0
2016-Jul-28 03:34N 59°06' E 010°14'0 0.0
2016-Jul-28 02:33N 59°06' E 010°14'0 0.0
2016-Jul-28 01:34N 59°06' E 010°14'0 0.0
2016-Jul-28 00:34N 59°06' E 010°14'0 0.0
2016-Jul-27 23:33N 59°06' E 010°14'0 0.0
2016-Jul-27 22:33N 59°06' E 010°14'0 0.0
2016-Jul-27 21:34N 59°06' E 010°14'0 0.0
2016-Jul-27 20:33N 59°06' E 010°14'1 1.4
2016-Jul-27 19:33N 59°08' E 010°14'5 4.8
2016-Jul-27 18:34N 59°03' E 010°15'1615.8
2016-Jul-27 17:34N 59°02' E 010°46'1413.8
2016-Jul-27 16:34N 58°56' E 011°10'4 3.9
2016-Jul-27 15:34N 58°57' E 011°03'1515.4
2016-Jul-27 14:33N 59°01' E 010°34'1212.3
2016-Jul-27 13:34N 59°07' E 010°14'0 0.3
2016-Jul-27 12:33N 59°08' E 010°14'9 9.2
2016-Jul-27 11:33N 59°01' E 010°26'1616.0
2016-Jul-27 10:34N 59°00' E 010°57'8 8.1
2016-Jul-27 09:33N 58°56' E 011°10'4 3.7
2016-Jul-27 08:33N 58°57' E 011°03'1615.6
2016-Jul-27 07:33N 59°01' E 010°34'1212.4
2016-Jul-27 06:33N 59°07' E 010°14'0 0.2
2016-Jul-27 05:34N 59°08' E 010°14'1 1.3
2016-Jul-27 04:32N 59°06' E 010°14'0 0.0
2016-Jul-27 03:32N 59°06' E 010°14'0 0.0
2016-Jul-27 02:33N 59°06' E 010°14'0 0.0
2016-Jul-27 01:31N 59°06' E 010°14'0 0.0
2016-Jul-27 00:31N 59°06' E 010°14'0 0.0
2016-Jul-26 23:32N 59°06' E 010°14'0 0.0
2016-Jul-26 22:33N 59°06' E 010°14'0 0.0
2016-Jul-26 21:33N 59°06' E 010°14'0 0.0
2016-Jul-26 20:31N 59°06' E 010°14'1 1.3
2016-Jul-26 19:31N 59°08' E 010°14'3 3.6
2016-Jul-26 18:34N 59°04' E 010°15'1414.1
2016-Jul-26 17:34N 59°01' E 010°42'1515.1
2016-Jul-26 16:34N 58°56' E 011°09'1 1.3
2016-Jul-26 15:33N 58°56' E 011°06'1615.6
2016-Jul-26 14:34N 59°01' E 010°38'1413.5
2016-Jul-26 13:33N 59°07' E 010°14'1 1.0
2016-Jul-26 12:34N 59°08' E 010°14'9 8.6
2016-Jul-26 11:34N 59°01' E 010°24'1615.7
2016-Jul-26 10:34N 59°01' E 010°55'9 9.4
2016-Jul-26 09:34N 58°56' E 011°10'5 4.8
2016-Jul-26 08:34N 58°58' E 011°02'1616.2
2016-Jul-26 07:33N 59°00' E 010°31'1111.4
2016-Jul-26 06:34N 59°08' E 010°14'0 0.0
2016-Jul-26 05:33N 59°08' E 010°14'1 1.0
2016-Jul-26 04:10N 59°06' E 010°14'0 0.0
2016-Jul-26 03:29N 59°06' E 010°14'0 0.0
2016-Jul-26 02:26N 59°06' E 010°14'0 0.0
2016-Jul-26 01:33N 59°06' E 010°14'0 0.0
2016-Jul-26 00:31N 59°06' E 010°14'0 0.0
2016-Jul-25 23:28N 59°06' E 010°14'0 0.0
2016-Jul-25 22:26N 59°06' E 010°14'0 0.0
2016-Jul-25 21:33N 59°06' E 010°14'0 0.0
2016-Jul-25 20:33N 59°06' E 010°14'1 1.3
2016-Jul-25 19:33N 59°07' E 010°14'4 4.1
2016-Jul-25 18:33N 59°03' E 010°15'1615.5
2016-Jul-25 17:33N 59°02' E 010°45'1414.1
2016-Jul-25 16:33N 58°56' E 011°10'4 3.5
2016-Jul-25 15:34N 58°57' E 011°04'1616.1
2016-Jul-25 14:33N 59°01' E 010°33'1212.1
2016-Jul-25 13:33N 59°08' E 010°14'0 0.0
2016-Jul-25 12:34N 59°08' E 010°14'8 8.4
2016-Jul-25 11:33N 59°01' E 010°24'1616.4
2016-Jul-25 10:34N 59°00' E 010°56'9 8.7
2016-Jul-25 09:33N 58°56' E 011°10'6 5.7
2016-Jul-25 08:33N 58°59' E 011°01'1616.0
2016-Jul-25 07:33N 59°01' E 010°30'1110.9
2016-Jul-25 06:34N 59°08' E 010°14'0 0.1
2016-Jul-25 05:33N 59°08' E 010°14'1 1.4
2016-Jul-25 04:33N 59°06' E 010°14'0 0.0
2016-Jul-25 03:31N 59°06' E 010°14'0 0.0
2016-Jul-25 02:32N 59°06' E 010°14'0 0.0
2016-Jul-25 01:32N 59°06' E 010°14'0 0.0
2016-Jul-25 00:33N 59°06' E 010°14'0 0.0
2016-Jul-24 23:34N 59°06' E 010°14'0 0.0
2016-Jul-24 22:31N 59°06' E 010°14'0 0.0
2016-Jul-24 21:32N 59°06' E 010°14'0 0.0
2016-Jul-24 20:34N 59°06' E 010°14'1 1.4
2016-Jul-24 19:34N 59°08' E 010°14'5 5.0
2016-Jul-24 18:33N 59°03' E 010°15'1615.9
2016-Jul-24 17:33N 59°02' E 010°46'1413.6
2016-Jul-24 16:34N 58°56' E 011°10'3 3.2
2016-Jul-24 15:33N 58°57' E 011°04'1515.4
2016-Jul-24 14:33N 59°01' E 010°35'1312.7
2016-Jul-24 13:34N 59°07' E 010°14'1 0.6
2016-Jul-24 12:34N 59°08' E 010°14'9 9.4
2016-Jul-24 11:34N 59°01' E 010°26'1615.6
2016-Jul-24 10:33N 59°00' E 010°56'8 8.2
2016-Jul-24 09:34N 58°56' E 011°10'4 4.3
2016-Jul-24 08:33N 58°58' E 011°03'1615.6
2016-Jul-24 07:34N 59°01' E 010°33'1211.9
2016-Jul-24 06:34N 59°07' E 010°14'0 0.2
2016-Jul-24 05:34N 59°08' E 010°14'1 1.4
2016-Jul-24 04:32N 59°06' E 010°14'0 0.0
2016-Jul-24 03:30N 59°06' E 010°14'0 0.0
2016-Jul-24 02:33N 59°06' E 010°14'0 0.0
2016-Jul-24 01:31N 59°06' E 010°14'0 0.0
2016-Jul-24 00:32N 59°06' E 010°14'0 0.0
2016-Jul-23 23:32N 59°06' E 010°14'0 0.0
2016-Jul-23 22:33N 59°06' E 010°14'0 0.0
2016-Jul-23 21:34N 59°06' E 010°14'0 0.0
2016-Jul-23 20:28N 59°06' E 010°14'1 1.5
2016-Jul-23 19:32N 59°08' E 010°14'3 3.2
2016-Jul-23 18:34N 59°04' E 010°15'1514.9
2016-Jul-23 17:34N 59°01' E 010°43'1514.9
2016-Jul-23 16:33N 58°56' E 011°10'1 1.3
2016-Jul-23 15:33N 58°56' E 011°07'1515.2
2016-Jul-23 14:33N 59°01' E 010°40'1413.6
2016-Jul-23 13:33N 59°05' E 010°14'2 2.4
2016-Jul-23 12:33N 59°08' E 010°14'8 7.9
2016-Jul-23 11:33N 59°01' E 010°23'1616.2
2016-Jul-23 10:33N 59°00' E 010°54'9 9.4
2016-Jul-23 09:33N 58°56' E 011°10'5 4.5
2016-Jul-23 08:33N 58°58' E 011°02'1615.7
2016-Jul-23 07:33N 59°00' E 010°32'1211.7
2016-Jul-23 06:33N 59°07' E 010°14'1 0.6
2016-Jul-23 04:33N 59°06' E 010°14'0 0.0
2016-Jul-23 03:33N 59°06' E 010°14'0 0.0
2016-Jul-23 02:31N 59°06' E 010°14'0 0.0
2016-Jul-23 01:32N 59°06' E 010°14'0 0.0
2016-Jul-23 00:32N 59°06' E 010°14'0 0.0
2016-Jul-22 23:33N 59°06' E 010°14'0 0.0
2016-Jul-22 22:31N 59°06' E 010°14'0 0.0
2016-Jul-22 21:31N 59°06' E 010°14'0 0.0
2016-Jul-22 20:32N 59°06' E 010°14'1 1.5
2016-Jul-22 19:33N 59°08' E 010°14'3 3.2
2016-Jul-22 18:33N 59°04' E 010°15'1515.1
2016-Jul-22 17:34N 59°02' E 010°44'1514.9
2016-Jul-22 16:33N 58°56' E 011°10'3 3.1
2016-Jul-22 15:34N 58°57' E 011°04'1615.8
2016-Jul-22 14:33N 59°01' E 010°35'1312.5
2016-Jul-22 13:33N 59°07' E 010°14'0 0.4
2016-Jul-22 12:34N 59°08' E 010°14'8 8.2
2016-Jul-22 11:34N 59°01' E 010°23'1616.1
2016-Jul-22 10:33N 59°00' E 010°55'9 9.1
2016-Jul-22 09:34N 58°56' E 011°10'4 4.2
2016-Jul-22 08:34N 58°58' E 011°03'1616.3
2016-Jul-22 07:34N 59°01' E 010°31'12 5.8
2016-Jul-22 05:33N 59°08' E 010°14'1 1.4
2016-Jul-22 04:31N 59°06' E 010°14'0 0.0
2016-Jul-22 03:31N 59°06' E 010°14'0 0.0
2016-Jul-22 02:32N 59°06' E 010°14'0 0.0
2016-Jul-22 01:33N 59°06' E 010°14'0 0.0
2016-Jul-22 00:33N 59°06' E 010°14'0 0.0
2016-Jul-21 23:31N 59°06' E 010°14'0 0.0
2016-Jul-21 22:32N 59°06' E 010°14'0 0.0
2016-Jul-21 21:32N 59°06' E 010°14'0 0.0
2016-Jul-21 20:33N 59°06' E 010°14'1 1.4
2016-Jul-21 19:34N 59°08' E 010°14'5 4.6
2016-Jul-21 18:33N 59°03' E 010°15'1716.5
2016-Jul-21 17:34N 59°02' E 010°47'1313.2
2016-Jul-21 16:33N 58°56' E 011°10'4 4.1
2016-Jul-21 15:33N 58°58' E 011°03'1616.2
2016-Jul-21 14:33N 59°01' E 010°32'1211.7
2016-Jul-21 13:33N 59°08' E 010°14'0 0.0
2016-Jul-21 12:34N 59°08' E 010°14'9 9.0
2016-Jul-21 11:33N 59°01' E 010°25'1616.4
2016-Jul-21 10:34N 59°00' E 010°57'8 7.9
2016-Jul-21 09:33N 58°56' E 011°10'6 5.7
2016-Jul-21 08:33N 58°59' E 011°01'1616.0
2016-Jul-21 07:33N 59°00' E 010°30'1110.9
2016-Jul-21 06:33N 59°08' E 010°14'0 0.0
2016-Jul-21 05:33N 59°08' E 010°14'1 1.4
2016-Jul-21 04:33N 59°06' E 010°14'0 0.0
2016-Jul-21 03:28N 59°06' E 010°14'0 0.0
2016-Jul-21 02:32N 59°06' E 010°14'0 0.0
2016-Jul-21 01:29N 59°06' E 010°14'0 0.0
2016-Jul-21 00:33N 59°06' E 010°14'0 0.0
2016-Jul-20 23:31N 59°06' E 010°14'0 0.0
2016-Jul-20 22:31N 59°06' E 010°14'0 0.0
2016-Jul-20 21:32N 59°06' E 010°14'0 0.0
2016-Jul-20 20:33N 59°06' E 010°14'1 1.4
2016-Jul-20 19:34N 59°08' E 010°14'6 5.5
2016-Jul-20 18:34N 59°02' E 010°15'1616.1
2016-Jul-20 17:34N 59°02' E 010°47'1313.4
2016-Jul-20 16:34N 58°56' E 011°10'3 2.8
2016-Jul-20 15:34N 58°56' E 011°05'1615.9
2016-Jul-20 14:34N 59°01' E 010°35'1312.7
2016-Jul-20 13:34N 59°07' E 010°14'0 0.5
2016-Jul-20 12:34N 59°08' E 010°14'8 8.4
2016-Jul-20 11:34N 59°01' E 010°24'1616.0
2016-Jul-20 10:34N 59°00' E 010°55'9 9.1
2016-Jul-20 09:34N 58°56' E 011°10'5 5.1
2016-Jul-20 08:34N 58°58' E 011°01'1616.2
2016-Jul-20 07:34N 59°00' E 010°30'1111.1
2016-Jul-20 06:34N 59°08' E 010°14'  
Track history (hours):
 
Tides and Currents Weather Stations Pressure Air Temp Water Temp Dewpoint Dewpoint Depression Visibility Wind Speed Wind Dir Waves Ship Positions

DucheSS Of Scandinavia

Operator: DFDS A/S

Last reported at 2016-Jul-30 06:31 UTC. Time now 2016-Jul-30 07:20 UTC.
Position N 59°07' E 010°14'.

Length 134 m; draft 5.2 m.

Type: Passenger vessel. MMSI: 219002929.

Date/timePositionNaut miles runAvg speedWind from/ knotsBaromVisibWave heightAir tempDewpointWater temp
2016-Jul-30 06:31N 59°07' E 010°14'0 0.3
2016-Jul-30 05:34N 59°08' E 010°14'1 1.4
2016-Jul-30 04:32N 59°06' E 010°14'0 0.0
2016-Jul-30 03:33N 59°06' E 010°14'0 0.0
2016-Jul-30 02:30N 59°06' E 010°14'0 0.0
2016-Jul-30 01:31N 59°06' E 010°14'0 0.0
2016-Jul-30 00:32N 59°06' E 010°14'0 0.0
2016-Jul-29 23:32N 59°06' E 010°14'0 0.0
2016-Jul-29 22:33N 59°06' E 010°14'0 0.0
2016-Jul-29 21:28N 59°06' E 010°14'0 0.0
2016-Jul-29 20:31N 59°06' E 010°14'1 1.5
2016-Jul-29 19:33N 59°08' E 010°14'6 5.8
2016-Jul-29 18:33N 59°02' E 010°16'1615.9
2016-Jul-29 17:33N 59°02' E 010°47'1313.4
2016-Jul-29 16:34N 58°56' E 011°10'4 3.9
2016-Jul-29 15:33N 58°57' E 011°03'1514.9
2016-Jul-29 14:33N 59°01' E 010°35'1312.6
2016-Jul-29 13:33N 59°07' E 010°14'1 0.8
2016-Jul-29 12:33N 59°08' E 010°14'9 9.1
2016-Jul-29 11:33N 59°01' E 010°26'1515.0
2016-Jul-29 10:33N 59°01' E 010°55'9 9.1
2016-Jul-29 09:34N 58°56' E 011°10'5 4.6
2016-Jul-29 08:33N 58°58' E 011°02'1515.3
2016-Jul-29 07:34N 59°01' E 010°33'1211.9
2016-Jul-29 06:33N 59°07' E 010°14'0 0.3
2016-Jul-29 05:34N 59°08' E 010°14'1 1.4
2016-Jul-29 04:32N 59°06' E 010°14'0 0.0
2016-Jul-29 03:33N 59°06' E 010°14'0 0.0
2016-Jul-29 02:31N 59°06' E 010°14'0 0.0
2016-Jul-29 01:31N 59°06' E 010°14'0 0.0
2016-Jul-29 00:32N 59°06' E 010°14'0 0.0
2016-Jul-28 23:33N 59°06' E 010°14'0 0.0
2016-Jul-28 22:33N 59°06' E 010°14'0 0.0
2016-Jul-28 21:31N 59°06' E 010°14'0 0.0
2016-Jul-28 20:34N 59°06' E 010°14'1 1.4
2016-Jul-28 19:34N 59°08' E 010°14'6 5.6
2016-Jul-28 18:33N 59°02' E 010°16'1514.8
2016-Jul-28 17:34N 59°02' E 010°44'1414.4
2016-Jul-28 16:34N 58°56' E 011°10'3 2.5
2016-Jul-28 15:34N 58°56' E 011°05'1515.4
2016-Jul-28 14:33N 59°01' E 010°37'1313.1
2016-Jul-28 13:33N 59°07' E 010°14'1 1.0
2016-Jul-28 12:34N 59°08' E 010°14'9 9.4
2016-Jul-28 11:34N 59°01' E 010°26'1515.3
2016-Jul-28 10:33N 59°00' E 010°56'9 8.6
2016-Jul-28 09:34N 58°56' E 011°10'3 3.5
2016-Jul-28 08:34N 58°57' E 011°04'1515.3
2016-Jul-28 07:34N 59°01' E 010°35'1312.6
2016-Jul-28 06:33N 59°07' E 010°14'0 0.3
2016-Jul-28 05:34N 59°08' E 010°14'1 1.4
2016-Jul-28 04:34N 59°06' E 010°14'0 0.0
2016-Jul-28 03:34N 59°06' E 010°14'0 0.0
2016-Jul-28 02:33N 59°06' E 010°14'0 0.0
2016-Jul-28 01:34N 59°06' E 010°14'0 0.0
2016-Jul-28 00:34N 59°06' E 010°14'0 0.0
2016-Jul-27 23:33N 59°06' E 010°14'0 0.0
2016-Jul-27 22:33N 59°06' E 010°14'0 0.0
2016-Jul-27 21:34N 59°06' E 010°14'0 0.0
2016-Jul-27 20:33N 59°06' E 010°14'1 1.4
2016-Jul-27 19:33N 59°08' E 010°14'5 4.8
2016-Jul-27 18:34N 59°03' E 010°15'1615.8
2016-Jul-27 17:34N 59°02' E 010°46'1413.8
2016-Jul-27 16:34N 58°56' E 011°10'4 3.9
2016-Jul-27 15:34N 58°57' E 011°03'1515.4
2016-Jul-27 14:33N 59°01' E 010°34'1212.3
2016-Jul-27 13:34N 59°07' E 010°14'0 0.3
2016-Jul-27 12:33N 59°08' E 010°14'9 9.2
2016-Jul-27 11:33N 59°01' E 010°26'1616.0
2016-Jul-27 10:34N 59°00' E 010°57'8 8.1
2016-Jul-27 09:33N 58°56' E 011°10'4 3.7
2016-Jul-27 08:33N 58°57' E 011°03'1615.6
2016-Jul-27 07:33N 59°01' E 010°34'1212.4
2016-Jul-27 06:33N 59°07' E 010°14'0 0.2
2016-Jul-27 05:34N 59°08' E 010°14'1 1.3
2016-Jul-27 04:32N 59°06' E 010°14'0 0.0
2016-Jul-27 03:32N 59°06' E 010°14'0 0.0
2016-Jul-27 02:33N 59°06' E 010°14'0 0.0
2016-Jul-27 01:31N 59°06' E 010°14'0 0.0
2016-Jul-27 00:31N 59°06' E 010°14'0 0.0
2016-Jul-26 23:32N 59°06' E 010°14'0 0.0
2016-Jul-26 22:33N 59°06' E 010°14'0 0.0
2016-Jul-26 21:33N 59°06' E 010°14'0 0.0
2016-Jul-26 20:31N 59°06' E 010°14'1 1.3
2016-Jul-26 19:31N 59°08' E 010°14'3 3.6
2016-Jul-26 18:34N 59°04' E 010°15'1414.1
2016-Jul-26 17:34N 59°01' E 010°42'1515.1
2016-Jul-26 16:34N 58°56' E 011°09'1 1.3
2016-Jul-26 15:33N 58°56' E 011°06'1615.6
2016-Jul-26 14:34N 59°01' E 010°38'1413.5
2016-Jul-26 13:33N 59°07' E 010°14'1 1.0
2016-Jul-26 12:34N 59°08' E 010°14'9 8.6
2016-Jul-26 11:34N 59°01' E 010°24'1615.7
2016-Jul-26 10:34N 59°01' E 010°55'9 9.4
2016-Jul-26 09:34N 58°56' E 011°10'5 4.8
2016-Jul-26 08:34N 58°58' E 011°02'1616.2
2016-Jul-26 07:33N 59°00' E 010°31'1111.4
2016-Jul-26 06:34N 59°08' E 010°14'0 0.0
2016-Jul-26 05:33N 59°08' E 010°14'1 1.0
2016-Jul-26 04:10N 59°06' E 010°14'0 0.0
2016-Jul-26 03:29N 59°06' E 010°14'0 0.0
2016-Jul-26 02:26N 59°06' E 010°14'0 0.0
2016-Jul-26 01:33N 59°06' E 010°14'0 0.0
2016-Jul-26 00:31N 59°06' E 010°14'0 0.0
2016-Jul-25 23:28N 59°06' E 010°14'0 0.0
2016-Jul-25 22:26N 59°06' E 010°14'0 0.0
2016-Jul-25 21:33N 59°06' E 010°14'0 0.0
2016-Jul-25 20:33N 59°06' E 010°14'1 1.3
2016-Jul-25 19:33N 59°07' E 010°14'4 4.1
2016-Jul-25 18:33N 59°03' E 010°15'1615.5
2016-Jul-25 17:33N 59°02' E 010°45'1414.1
2016-Jul-25 16:33N 58°56' E 011°10'4 3.5
2016-Jul-25 15:34N 58°57' E 011°04'1616.1
2016-Jul-25 14:33N 59°01' E 010°33'1212.1
2016-Jul-25 13:33N 59°08' E 010°14'0 0.0
2016-Jul-25 12:34N 59°08' E 010°14'8 8.4
2016-Jul-25 11:33N 59°01' E 010°24'1616.4
2016-Jul-25 10:34N 59°00' E 010°56'9 8.7
2016-Jul-25 09:33N 58°56' E 011°10'6 5.7
2016-Jul-25 08:33N 58°59' E 011°01'1616.0
2016-Jul-25 07:33N 59°01' E 010°30'1110.9
2016-Jul-25 06:34N 59°08' E 010°14'0 0.1
2016-Jul-25 05:33N 59°08' E 010°14'1 1.4
2016-Jul-25 04:33N 59°06' E 010°14'0 0.0
2016-Jul-25 03:31N 59°06' E 010°14'0 0.0
2016-Jul-25 02:32N 59°06' E 010°14'0 0.0
2016-Jul-25 01:32N 59°06' E 010°14'0 0.0
2016-Jul-25 00:33N 59°06' E 010°14'0 0.0
2016-Jul-24 23:34N 59°06' E 010°14'0 0.0
2016-Jul-24 22:31N 59°06' E 010°14'0 0.0
2016-Jul-24 21:32N 59°06' E 010°14'0 0.0
2016-Jul-24 20:34N 59°06' E 010°14'1 1.4
2016-Jul-24 19:34N 59°08' E 010°14'5 5.0
2016-Jul-24 18:33N 59°03' E 010°15'1615.9
2016-Jul-24 17:33N 59°02' E 010°46'1413.6
2016-Jul-24 16:34N 58°56' E 011°10'3 3.2
2016-Jul-24 15:33N 58°57' E 011°04'1515.4
2016-Jul-24 14:33N 59°01' E 010°35'1312.7
2016-Jul-24 13:34N 59°07' E 010°14'1 0.6
2016-Jul-24 12:34N 59°08' E 010°14'9 9.4
2016-Jul-24 11:34N 59°01' E 010°26'1615.6
2016-Jul-24 10:33N 59°00' E 010°56'8 8.2
2016-Jul-24 09:34N 58°56' E 011°10'4 4.3
2016-Jul-24 08:33N 58°58' E 011°03'1615.6
2016-Jul-24 07:34N 59°01' E 010°33'1211.9
2016-Jul-24 06:34N 59°07' E 010°14'0 0.2
2016-Jul-24 05:34N 59°08' E 010°14'1 1.4
2016-Jul-24 04:32N 59°06' E 010°14'0 0.0
2016-Jul-24 03:30N 59°06' E 010°14'0 0.0
2016-Jul-24 02:33N 59°06' E 010°14'0 0.0
2016-Jul-24 01:31N 59°06' E 010°14'0 0.0
2016-Jul-24 00:32N 59°06' E 010°14'0 0.0
2016-Jul-23 23:32N 59°06' E 010°14'0 0.0
2016-Jul-23 22:33N 59°06' E 010°14'0 0.0
2016-Jul-23 21:34N 59°06' E 010°14'0 0.0
2016-Jul-23 20:28N 59°06' E 010°14'1 1.5
2016-Jul-23 19:32N 59°08' E 010°14'3 3.2
2016-Jul-23 18:34N 59°04' E 010°15'1514.9
2016-Jul-23 17:34N 59°01' E 010°43'1514.9
2016-Jul-23 16:33N 58°56' E 011°10'1 1.3
2016-Jul-23 15:33N 58°56' E 011°07'1515.2
2016-Jul-23 14:33N 59°01' E 010°40'1413.6
2016-Jul-23 13:33N 59°05' E 010°14'2 2.4
2016-Jul-23 12:33N 59°08' E 010°14'8 7.9
2016-Jul-23 11:33N 59°01' E 010°23'1616.2
2016-Jul-23 10:33N 59°00' E 010°54'9 9.4
2016-Jul-23 09:33N 58°56' E 011°10'5 4.5
2016-Jul-23 08:33N 58°58' E 011°02'1615.7
2016-Jul-23 07:33N 59°00' E 010°32'1211.7
2016-Jul-23 06:33N 59°07' E 010°14'1 0.6
2016-Jul-23 04:33N 59°06' E 010°14'0 0.0
2016-Jul-23 03:33N 59°06' E 010°14'0 0.0
2016-Jul-23 02:31N 59°06' E 010°14'0 0.0
2016-Jul-23 01:32N 59°06' E 010°14'0 0.0
2016-Jul-23 00:32N 59°06' E 010°14'0 0.0
2016-Jul-22 23:33N 59°06' E 010°14'0 0.0
2016-Jul-22 22:31N 59°06' E 010°14'0 0.0
2016-Jul-22 21:31N 59°06' E 010°14'0 0.0
2016-Jul-22 20:32N 59°06' E 010°14'1 1.5
2016-Jul-22 19:33N 59°08' E 010°14'3 3.2
2016-Jul-22 18:33N 59°04' E 010°15'1515.1
2016-Jul-22 17:34N 59°02' E 010°44'1514.9
2016-Jul-22 16:33N 58°56' E 011°10'3 3.1
2016-Jul-22 15:34N 58°57' E 011°04'1615.8
2016-Jul-22 14:33N 59°01' E 010°35'1312.5
2016-Jul-22 13:33N 59°07' E 010°14'0 0.4
2016-Jul-22 12:34N 59°08' E 010°14'8 8.2
2016-Jul-22 11:34N 59°01' E 010°23'1616.1
2016-Jul-22 10:33N 59°00' E 010°55'9 9.1
2016-Jul-22 09:34N 58°56' E 011°10'4 4.2
2016-Jul-22 08:34N 58°58' E 011°03'1616.3
2016-Jul-22 07:34N 59°01' E 010°31'12 5.8
2016-Jul-22 05:33N 59°08' E 010°14'1 1.4
2016-Jul-22 04:31N 59°06' E 010°14'0 0.0
2016-Jul-22 03:31N 59°06' E 010°14'0 0.0
2016-Jul-22 02:32N 59°06' E 010°14'0 0.0
2016-Jul-22 01:33N 59°06' E 010°14'0 0.0
2016-Jul-22 00:33N 59°06' E 010°14'0 0.0
2016-Jul-21 23:31N 59°06' E 010°14'0 0.0
2016-Jul-21 22:32N 59°06' E 010°14'0 0.0
2016-Jul-21 21:32N 59°06' E 010°14'0 0.0
2016-Jul-21 20:33N 59°06' E 010°14'1 1.4
2016-Jul-21 19:34N 59°08' E 010°14'5 4.6
2016-Jul-21 18:33N 59°03' E 010°15'1716.5
2016-Jul-21 17:34N 59°02' E 010°47'1313.2
2016-Jul-21 16:33N 58°56' E 011°10'4 4.1
2016-Jul-21 15:33N 58°58' E 011°03'1616.2
2016-Jul-21 14:33N 59°01' E 010°32'1211.7
2016-Jul-21 13:33N 59°08' E 010°14'0 0.0
2016-Jul-21 12:34N 59°08' E 010°14'9 9.0
2016-Jul-21 11:33N 59°01' E 010°25'1616.4
2016-Jul-21 10:34N 59°00' E 010°57'8 7.9
2016-Jul-21 09:33N 58°56' E 011°10'6 5.7
2016-Jul-21 08:33N 58°59' E 011°01'1616.0
2016-Jul-21 07:33N 59°00' E 010°30'1110.9
2016-Jul-21 06:33N 59°08' E 010°14'0 0.0
2016-Jul-21 05:33N 59°08' E 010°14'1 1.4
2016-Jul-21 04:33N 59°06' E 010°14'0 0.0
2016-Jul-21 03:28N 59°06' E 010°14'0 0.0
2016-Jul-21 02:32N 59°06' E 010°14'0 0.0
2016-Jul-21 01:29N 59°06' E 010°14'0 0.0
2016-Jul-21 00:33N 59°06' E 010°14'0 0.0
2016-Jul-20 23:31N 59°06' E 010°14'0 0.0
2016-Jul-20 22:31N 59°06' E 010°14'0 0.0
2016-Jul-20 21:32N 59°06' E 010°14'0 0.0
2016-Jul-20 20:33N 59°06' E 010°14'1 1.4
2016-Jul-20 19:34N 59°08' E 010°14'6 5.5
2016-Jul-20 18:34N 59°02' E 010°15'1616.1
2016-Jul-20 17:34N 59°02' E 010°47'1313.4
2016-Jul-20 16:34N 58°56' E 011°10'3 2.8
2016-Jul-20 15:34N 58°56' E 011°05'1615.9
2016-Jul-20 14:34N 59°01' E 010°35'1312.7
2016-Jul-20 13:34N 59°07' E 010°14'0 0.5
2016-Jul-20 12:34N 59°08' E 010°14'8 8.4
2016-Jul-20 11:34N 59°01' E 010°24'1616.0
2016-Jul-20 10:34N 59°00' E 010°55'9 9.1
2016-Jul-20 09:34N 58°56' E 011°10'5 5.1
2016-Jul-20 08:34N 58°58' E 011°01'1616.2
2016-Jul-20 07:34N 59°00' E 010°30'1111.1
2016-Jul-20 06:34N 59°08' E 010°14'  

Dump ship's entire track history